createdAt,value
2023-03-18T00:04:42.908Z,6.60
2023-03-18T00:09:47.117Z,8.50
2023-03-18T00:14:52.076Z,5.70
2023-03-18T00:19:56.340Z,6.20
2023-03-18T00:25:00.565Z,8.40
2023-03-18T00:30:06.364Z,8.90
2023-03-18T00:35:11.249Z,9.00
2023-03-18T00:40:20.761Z,5.10
2023-03-18T00:45:26.526Z,5.30
2023-03-18T00:50:30.734Z,5.50
2023-03-18T00:55:35.705Z,7.50
2023-03-18T01:00:41.904Z,5.10
2023-03-18T01:05:45.921Z,8.30
2023-03-18T01:10:50.071Z,7.00
2023-03-18T01:15:54.987Z,9.40
2023-03-18T01:20:59.070Z,5.60
2023-03-18T01:26:07.309Z,5.90
2023-03-18T01:31:13.015Z,5.80
2023-03-18T01:36:18.339Z,5.70
2023-03-18T01:41:26.977Z,6.50
2023-03-18T01:46:40.395Z,6.90
2023-03-18T01:51:53.126Z,4.90
2023-03-18T01:56:58.085Z,4.60
2023-03-18T02:02:11.252Z,4.40
2023-03-18T02:07:19.966Z,7.70
2023-03-18T02:12:33.836Z,5.40
2023-03-18T02:17:42.397Z,4.70
2023-03-18T02:22:58.030Z,5.20
2023-03-18T02:28:04.341Z,5.80
2023-03-18T02:33:11.714Z,4.50
2023-03-18T02:38:15.892Z,4.00
2023-03-18T02:43:24.417Z,4.00
2023-03-18T02:48:43.798Z,6.20
2023-03-18T02:53:48.848Z,4.70
2023-03-18T02:58:53.293Z,4.80
2023-03-18T03:03:57.652Z,6.50
2023-03-18T03:09:03.110Z,3.80
2023-03-18T03:14:08.879Z,4.80
2023-03-18T03:19:13.738Z,4.00
2023-03-18T03:24:18.055Z,4.60
2023-03-18T03:29:22.410Z,4.10
2023-03-18T03:34:27.684Z,3.90
2023-03-18T03:39:32.116Z,4.20
2023-03-18T03:44:36.968Z,3.50
2023-03-18T03:49:41.006Z,4.70
2023-03-18T03:54:46.255Z,3.80
2023-03-18T03:59:52.833Z,6.00
2023-03-18T04:05:02.707Z,3.40
2023-03-18T04:10:12.161Z,3.40
2023-03-18T04:15:18.041Z,4.20
2023-03-18T04:20:23.046Z,3.70
2023-03-18T04:25:28.060Z,3.60
2023-03-18T04:30:32.792Z,3.20
2023-03-18T04:35:44.003Z,4.80
2023-03-18T04:40:49.356Z,4.90
2023-03-18T04:45:54.419Z,3.20
2023-03-18T04:50:58.558Z,2.70
2023-03-18T04:56:06.431Z,3.90
2023-03-18T05:01:19.770Z,2.80
2023-03-18T05:06:29.058Z,3.40
2023-03-18T05:11:36.778Z,3.30
2023-03-18T05:16:49.960Z,3.30
2023-03-18T05:21:54.668Z,4.30
2023-03-18T05:26:58.956Z,6.10
2023-03-18T05:32:09.662Z,3.50
2023-03-18T05:37:16.517Z,3.10
2023-03-18T05:42:25.662Z,4.30
2023-03-18T05:47:30.512Z,2.80
2023-03-18T05:52:47.933Z,2.60
2023-03-18T05:57:58.004Z,3.40
2023-03-18T06:03:03.240Z,2.20
2023-03-18T06:08:08.367Z,3.10
2023-03-18T06:13:14.000Z,2.60
2023-03-18T06:18:18.234Z,3.00
2023-03-18T06:23:22.990Z,3.30
2023-03-18T06:28:27.427Z,2.40
2023-03-18T06:33:34.640Z,2.40
2023-03-18T06:38:39.237Z,2.70
2023-03-18T06:43:44.237Z,3.00
2023-03-18T06:48:49.293Z,2.50
2023-03-18T06:53:57.324Z,2.60
2023-03-18T06:59:03.197Z,2.80
2023-03-18T07:04:08.660Z,3.70
2023-03-18T07:09:15.538Z,2.80
2023-03-18T07:14:22.003Z,3.20
2023-03-18T07:19:26.680Z,2.10
2023-03-18T07:24:31.118Z,2.40
2023-03-18T07:29:36.895Z,4.00
2023-03-18T07:34:43.019Z,4.50
2023-03-18T07:39:47.309Z,4.20
2023-03-18T07:44:51.645Z,3.60
2023-03-18T07:49:55.886Z,2.70
2023-03-18T07:54:59.706Z,2.60
2023-03-18T08:00:07.956Z,2.70
2023-03-18T08:05:19.620Z,2.10
2023-03-18T08:10:24.288Z,4.40
2023-03-18T08:15:28.635Z,9.90
2023-03-18T08:20:32.762Z,3.80
2023-03-18T08:25:36.710Z,2.50
2023-03-18T08:30:41.658Z,4.00
2023-03-18T08:35:45.947Z,11.20
2023-03-18T08:40:50.677Z,3.30
2023-03-18T08:45:55.062Z,6.00
2023-03-18T08:50:59.630Z,6.60
2023-03-18T08:56:06.140Z,8.90
2023-03-18T09:01:11.900Z,5.80
2023-03-18T09:06:16.892Z,4.10
2023-03-18T09:11:20.870Z,4.60
2023-03-18T09:16:24.939Z,3.50
2023-03-18T09:21:28.832Z,5.30
2023-03-18T09:26:32.755Z,4.30
2023-03-18T09:31:37.808Z,5.40
2023-03-18T09:36:43.993Z,4.00
2023-03-18T09:42:07.466Z,5.10
2023-03-18T09:47:21.036Z,7.80
2023-03-18T09:52:31.385Z,10.10
2023-03-18T09:57:43.217Z,6.80
2023-03-18T10:02:59.627Z,10.20
2023-03-18T10:08:25.468Z,13.00
2023-03-18T10:13:37.062Z,3.90
2023-03-18T10:18:43.874Z,7.30
2023-03-18T10:23:51.989Z,4.60
2023-03-18T10:29:02.287Z,3.90
2023-03-18T10:34:19.512Z,6.50
2023-03-18T10:39:26.297Z,5.50
2023-03-18T10:44:36.516Z,4.80
2023-03-18T10:49:46.390Z,4.10
2023-03-18T10:54:53.540Z,5.70
2023-03-18T10:59:57.470Z,9.50
2023-03-18T11:05:20.894Z,9.20
2023-03-18T11:10:31.042Z,9.00
2023-03-18T11:15:46.355Z,9.00
2023-03-18T11:21:01.793Z,6.90
2023-03-18T11:26:09.211Z,4.70
2023-03-18T11:31:18.716Z,5.30
2023-03-18T11:36:24.616Z,13.50
2023-03-18T11:41:30.534Z,6.40
2023-03-18T11:47:20.027Z,4.10
2023-03-18T11:52:46.939Z,4.00
2023-03-18T11:58:16.292Z,6.30
2023-03-18T12:03:55.687Z,6.90
2023-03-18T12:09:18.451Z,7.50
2023-03-18T12:14:45.005Z,6.60
2023-03-18T12:20:14.100Z,6.80
2023-03-18T12:25:35.027Z,4.90
2023-03-18T12:30:43.664Z,8.70
2023-03-18T12:35:56.654Z,7.60
2023-03-18T12:41:25.944Z,5.90
2023-03-18T12:46:40.784Z,9.00
2023-03-18T12:52:01.098Z,7.80
2023-03-18T12:57:13.054Z,6.40
2023-03-18T13:02:27.006Z,16.00
2023-03-18T13:08:07.210Z,11.50
2023-03-18T13:13:14.482Z,10.00
2023-03-18T13:18:34.002Z,3.00
2023-03-18T13:24:02.699Z,6.30
2023-03-18T13:29:17.064Z,6.90
2023-03-18T13:34:56.915Z,5.40
2023-03-18T13:40:09.784Z,4.30
2023-03-18T13:45:26.276Z,6.10
2023-03-18T13:50:40.425Z,5.50
2023-03-18T13:55:57.986Z,7.10
2023-03-18T14:01:20.334Z,5.10
2023-03-18T14:06:39.804Z,6.80
2023-03-18T14:11:47.841Z,4.30
2023-03-18T14:16:53.811Z,9.60
2023-03-18T14:22:33.462Z,14.30
2023-03-18T14:27:53.943Z,7.10
2023-03-18T14:33:05.668Z,7.20
2023-03-18T14:38:25.356Z,6.20
2023-03-18T14:43:46.791Z,8.30
2023-03-18T14:48:54.544Z,7.90
2023-03-18T14:54:06.935Z,9.40
2023-03-18T14:59:17.674Z,9.10
2023-03-18T15:04:25.245Z,9.30
2023-03-18T15:09:32.842Z,4.60
2023-03-18T15:14:38.528Z,5.70
2023-03-18T15:19:43.460Z,5.40
2023-03-18T15:24:48.837Z,6.30
2023-03-18T15:29:55.077Z,6.50
2023-03-18T15:35:11.326Z,6.00
2023-03-18T15:40:25.388Z,5.60
2023-03-18T15:45:30.643Z,7.50
2023-03-18T15:50:37.288Z,5.40
2023-03-18T15:55:51.311Z,7.60
2023-03-18T16:00:57.780Z,5.40
2023-03-18T16:06:02.776Z,4.90
2023-03-18T16:11:07.118Z,4.30
2023-03-18T16:16:24.736Z,4.80
2023-03-18T16:21:29.277Z,5.50
2023-03-18T16:26:33.822Z,7.70
2023-03-18T16:31:38.995Z,6.00
2023-03-18T16:36:44.497Z,4.40
2023-03-18T16:41:50.622Z,9.50
2023-03-18T16:46:57.847Z,6.90
2023-03-18T16:52:04.844Z,4.80
2023-03-18T16:57:17.207Z,7.60
2023-03-18T17:02:35.002Z,6.60
2023-03-18T17:07:39.733Z,7.90
2023-03-18T17:12:58.488Z,5.10
2023-03-18T17:18:05.645Z,7.50
2023-03-18T17:23:22.608Z,5.40
2023-03-18T17:28:31.184Z,7.30
2023-03-18T17:33:38.851Z,6.60
2023-03-18T17:38:46.544Z,6.30
2023-03-18T17:43:52.516Z,7.10
2023-03-18T17:48:57.845Z,6.00
2023-03-18T17:54:06.097Z,6.30
2023-03-18T17:59:19.076Z,6.10
2023-03-18T18:04:27.068Z,5.90
2023-03-18T18:09:33.897Z,4.10
2023-03-18T18:14:40.591Z,5.70
2023-03-18T18:19:46.674Z,6.00
2023-03-18T18:24:53.908Z,9.60
2023-03-18T18:30:00.574Z,10.30
2023-03-18T18:35:08.118Z,5.60
2023-03-18T18:40:15.899Z,6.90
2023-03-18T18:45:22.375Z,8.10
2023-03-18T18:50:33.120Z,6.10
2023-03-18T18:55:39.723Z,5.70
2023-03-18T19:00:54.590Z,6.00
2023-03-18T19:06:02.747Z,13.80
2023-03-18T19:11:15.757Z,9.50
2023-03-18T19:16:34.718Z,7.50
2023-03-18T19:21:43.894Z,7.30
2023-03-18T19:26:49.249Z,7.00
2023-03-18T19:31:56.433Z,9.90
2023-03-18T19:37:04.971Z,10.40
2023-03-18T19:42:18.025Z,8.80
2023-03-18T19:47:29.396Z,8.80
2023-03-18T19:52:34.988Z,7.70
2023-03-18T19:57:42.653Z,12.60
2023-03-18T20:02:50.102Z,7.50
2023-03-18T20:07:56.279Z,6.10
2023-03-18T20:13:06.128Z,7.50
2023-03-18T20:18:18.192Z,9.50
2023-03-18T20:23:28.478Z,9.10
2023-03-18T20:28:34.108Z,9.80
2023-03-18T20:33:41.783Z,9.80
2023-03-18T20:38:50.774Z,10.20
2023-03-18T20:43:56.327Z,8.60
2023-03-18T20:49:02.745Z,7.20
2023-03-18T20:54:29.038Z,9.20
2023-03-18T20:59:35.606Z,10.20
2023-03-18T21:04:42.166Z,8.50
2023-03-18T21:09:49.751Z,9.50
2023-03-18T21:14:55.023Z,9.10
2023-03-18T21:20:15.201Z,8.70
2023-03-18T21:25:28.658Z,11.10
2023-03-18T21:30:34.778Z,12.00
2023-03-18T21:35:40.868Z,13.30
2023-03-18T21:40:46.156Z,9.60
2023-03-18T21:45:50.927Z,12.40
2023-03-18T21:50:56.089Z,10.50
2023-03-18T21:56:00.652Z,7.70
2023-03-18T22:01:06.212Z,7.50
2023-03-18T22:06:16.953Z,8.30
2023-03-18T22:11:23.035Z,10.70
2023-03-18T22:16:26.987Z,10.00
2023-03-18T22:21:31.152Z,10.60
2023-03-18T22:26:35.260Z,24.80
2023-03-18T22:31:41.004Z,13.40
2023-03-18T22:36:45.084Z,15.60
2023-03-18T22:41:49.102Z,13.90
2023-03-18T22:46:53.125Z,14.20
2023-03-18T22:51:57.404Z,13.80
2023-03-18T22:57:01.418Z,10.70
2023-03-18T23:02:10.159Z,12.40
2023-03-18T23:07:29.738Z,11.20
2023-03-18T23:12:35.004Z,13.50
2023-03-18T23:17:39.045Z,29.60
2023-03-18T23:22:44.351Z,23.00
2023-03-18T23:27:48.222Z,25.70
2023-03-18T23:32:52.796Z,26.60
2023-03-18T23:37:56.923Z,20.20
2023-03-18T23:43:01.256Z,23.90
2023-03-18T23:48:05.878Z,23.80
2023-03-18T23:53:09.918Z,23.20
2023-03-18T23:58:13.960Z,24.00
